sensor_id;sensor_type;location;lat;lon;timestamp;P1;durP1;ratioP1;P2;durP2;ratioP2
13441;SDS011;6793;55.662;13.114;2024-02-23T00:00:18;0.00;;;0.00;;
13441;SDS011;6793;55.662;13.114;2024-02-23T00:02:45;0.00;;;0.00;;
13441;SDS011;6793;55.662;13.114;2024-02-23T00:05:12;0.00;;;0.00;;
13441;SDS011;6793;55.662;13.114;2024-02-23T00:07:39;0.00;;;0.00;;
13441;SDS011;6793;55.662;13.114;2024-02-23T00:10:07;0.00;;;0.00;;
13441;SDS011;6793;55.662;13.114;2024-02-23T00:12:34;0.00;;;0.00;;
13441;SDS011;6793;55.662;13.114;2024-02-23T00:15:01;0.00;;;0.00;;
13441;SDS011;6793;55.662;13.114;2024-02-23T00:17:29;0.00;;;0.00;;
13441;SDS011;6793;55.662;13.114;2024-02-23T00:19:56;0.00;;;0.00;;
13441;SDS011;6793;55.662;13.114;2024-02-23T00:22:23;0.00;;;0.00;;
13441;SDS011;6793;55.662;13.114;2024-02-23T00:24:51;0.00;;;0.00;;
13441;SDS011;6793;55.662;13.114;2024-02-23T00:27:18;0.00;;;0.00;;
13441;SDS011;6793;55.662;13.114;2024-02-23T00:29:45;0.00;;;0.00;;
13441;SDS011;6793;55.662;13.114;2024-02-23T00:32:12;0.00;;;0.00;;
13441;SDS011;6793;55.662;13.114;2024-02-23T00:34:40;0.00;;;0.00;;
13441;SDS011;6793;55.662;13.114;2024-02-23T00:37:08;0.00;;;0.00;;
13441;SDS011;6793;55.662;13.114;2024-02-23T00:39:35;0.00;;;0.00;;
13441;SDS011;6793;55.662;13.114;2024-02-23T00:42:02;0.00;;;0.00;;
13441;SDS011;6793;55.662;13.114;2024-02-23T00:44:30;0.00;;;0.00;;
13441;SDS011;6793;55.662;13.114;2024-02-23T00:46:57;0.00;;;0.00;;
13441;SDS011;6793;55.662;13.114;2024-02-23T00:49:26;0.00;;;0.00;;
13441;SDS011;6793;55.662;13.114;2024-02-23T00:51:54;0.00;;;0.00;;
13441;SDS011;6793;55.662;13.114;2024-02-23T00:54:22;0.00;;;0.00;;
13441;SDS011;6793;55.662;13.114;2024-02-23T00:56:49;0.00;;;0.00;;
13441;SDS011;6793;55.662;13.114;2024-02-23T00:59:16;0.00;;;0.00;;
13441;SDS011;6793;55.662;13.114;2024-02-23T01:01:43;0.00;;;0.00;;
13441;SDS011;6793;55.662;13.114;2024-02-23T01:04:10;0.00;;;0.00;;
13441;SDS011;6793;55.662;13.114;2024-02-23T01:06:37;0.00;;;0.00;;
13441;SDS011;6793;55.662;13.114;2024-02-23T01:09:06;0.00;;;0.00;;
13441;SDS011;6793;55.662;13.114;2024-02-23T01:11:33;0.00;;;0.00;;
13441;SDS011;6793;55.662;13.114;2024-02-23T01:14:00;0.00;;;0.00;;
13441;SDS011;6793;55.662;13.114;2024-02-23T01:16:27;0.00;;;0.00;;
13441;SDS011;6793;55.662;13.114;2024-02-23T01:18:54;0.00;;;0.00;;
13441;SDS011;6793;55.662;13.114;2024-02-23T01:21:21;0.00;;;0.00;;
13441;SDS011;6793;55.662;13.114;2024-02-23T01:23:48;0.00;;;0.00;;
13441;SDS011;6793;55.662;13.114;2024-02-23T01:26:17;0.00;;;0.00;;
13441;SDS011;6793;55.662;13.114;2024-02-23T01:28:44;0.00;;;0.00;;
13441;SDS011;6793;55.662;13.114;2024-02-23T01:31:11;0.00;;;0.00;;
13441;SDS011;6793;55.662;13.114;2024-02-23T01:33:38;0.00;;;0.00;;
13441;SDS011;6793;55.662;13.114;2024-02-23T01:36:05;0.00;;;0.00;;
13441;SDS011;6793;55.662;13.114;2024-02-23T01:38:32;0.00;;;0.00;;
13441;SDS011;6793;55.662;13.114;2024-02-23T01:40:59;0.00;;;0.00;;
13441;SDS011;6793;55.662;13.114;2024-02-23T01:43:28;0.00;;;0.00;;
13441;SDS011;6793;55.662;13.114;2024-02-23T01:45:55;0.00;;;0.00;;
13441;SDS011;6793;55.662;13.114;2024-02-23T01:48:22;0.00;;;0.00;;
13441;SDS011;6793;55.662;13.114;2024-02-23T01:50:49;0.00;;;0.00;;
13441;SDS011;6793;55.662;13.114;2024-02-23T01:53:16;0.00;;;0.00;;
13441;SDS011;6793;55.662;13.114;2024-02-23T01:55:45;0.00;;;0.00;;
13441;SDS011;6793;55.662;13.114;2024-02-23T01:58:12;0.00;;;0.00;;
13441;SDS011;6793;55.662;13.114;2024-02-23T02:00:40;0.00;;;0.00;;
13441;SDS011;6793;55.662;13.114;2024-02-23T02:03:07;0.00;;;0.00;;
13441;SDS011;6793;55.662;13.114;2024-02-23T02:05:35;0.00;;;0.00;;
13441;SDS011;6793;55.662;13.114;2024-02-23T02:08:02;0.00;;;0.00;;
13441;SDS011;6793;55.662;13.114;2024-02-23T02:10:30;0.00;;;0.00;;
13441;SDS011;6793;55.662;13.114;2024-02-23T02:13:01;0.00;;;0.00;;
13441;SDS011;6793;55.662;13.114;2024-02-23T02:15:28;0.00;;;0.00;;
13441;SDS011;6793;55.662;13.114;2024-02-23T02:17:56;0.00;;;0.00;;
13441;SDS011;6793;55.662;13.114;2024-02-23T02:20:24;0.00;;;0.00;;
13441;SDS011;6793;55.662;13.114;2024-02-23T02:22:52;0.00;;;0.00;;
13441;SDS011;6793;55.662;13.114;2024-02-23T02:25:19;0.00;;;0.00;;
13441;SDS011;6793;55.662;13.114;2024-02-23T02:27:46;0.00;;;0.00;;
13441;SDS011;6793;55.662;13.114;2024-02-23T02:30:13;0.00;;;0.00;;
13441;SDS011;6793;55.662;13.114;2024-02-23T02:32:40;0.00;;;0.00;;
13441;SDS011;6793;55.662;13.114;2024-02-23T02:35:09;0.00;;;0.00;;
13441;SDS011;6793;55.662;13.114;2024-02-23T02:37:37;0.00;;;0.00;;
13441;SDS011;6793;55.662;13.114;2024-02-23T02:40:04;0.00;;;0.00;;
13441;SDS011;6793;55.662;13.114;2024-02-23T02:42:32;0.00;;;0.00;;
13441;SDS011;6793;55.662;13.114;2024-02-23T02:44:59;0.00;;;0.00;;
13441;SDS011;6793;55.662;13.114;2024-02-23T02:47:27;0.00;;;0.00;;
13441;SDS011;6793;55.662;13.114;2024-02-23T02:49:54;0.00;;;0.00;;
13441;SDS011;6793;55.662;13.114;2024-02-23T02:52:23;0.00;;;0.00;;
13441;SDS011;6793;55.662;13.114;2024-02-23T02:54:50;0.00;;;0.00;;
13441;SDS011;6793;55.662;13.114;2024-02-23T02:57:17;0.00;;;0.00;;
13441;SDS011;6793;55.662;13.114;2024-02-23T02:59:44;0.00;;;0.00;;
13441;SDS011;6793;55.662;13.114;2024-02-23T03:02:12;0.00;;;0.00;;
13441;SDS011;6793;55.662;13.114;2024-02-23T03:04:39;0.00;;;0.00;;
13441;SDS011;6793;55.662;13.114;2024-02-23T03:07:06;0.00;;;0.00;;
13441;SDS011;6793;55.662;13.114;2024-02-23T03:09:34;0.10;;;0.10;;
13441;SDS011;6793;55.662;13.114;2024-02-23T03:12:01;0.10;;;0.10;;
13441;SDS011;6793;55.662;13.114;2024-02-23T03:14:28;0.10;;;0.10;;
13441;SDS011;6793;55.662;13.114;2024-02-23T03:16:55;0.20;;;0.20;;
13441;SDS011;6793;55.662;13.114;2024-02-23T03:19:22;0.20;;;0.20;;
13441;SDS011;6793;55.662;13.114;2024-02-23T03:21:50;0.20;;;0.20;;
13441;SDS011;6793;55.662;13.114;2024-02-23T03:24:17;0.20;;;0.20;;
13441;SDS011;6793;55.662;13.114;2024-02-23T03:26:46;0.20;;;0.20;;
13441;SDS011;6793;55.662;13.114;2024-02-23T03:29:13;0.20;;;0.20;;
13441;SDS011;6793;55.662;13.114;2024-02-23T03:31:40;0.30;;;0.30;;
13441;SDS011;6793;55.662;13.114;2024-02-23T03:34:07;0.38;;;0.38;;
13441;SDS011;6793;55.662;13.114;2024-02-23T03:36:36;0.30;;;0.30;;
13441;SDS011;6793;55.662;13.114;2024-02-23T03:39:03;0.30;;;0.30;;
13441;SDS011;6793;55.662;13.114;2024-02-23T03:41:30;0.30;;;0.30;;
13441;SDS011;6793;55.662;13.114;2024-02-23T03:43:58;0.40;;;0.40;;
13441;SDS011;6793;55.662;13.114;2024-02-23T03:46:26;0.40;;;0.40;;
13441;SDS011;6793;55.662;13.114;2024-02-23T03:48:53;0.30;;;0.30;;
13441;SDS011;6793;55.662;13.114;2024-02-23T03:51:20;0.40;;;0.40;;
13441;SDS011;6793;55.662;13.114;2024-02-23T03:53:47;0.40;;;0.40;;
13441;SDS011;6793;55.662;13.114;2024-02-23T03:56:15;0.50;;;0.50;;
13441;SDS011;6793;55.662;13.114;2024-02-23T03:58:42;0.40;;;0.40;;
13441;SDS011;6793;55.662;13.114;2024-02-23T04:01:29;0.50;;;0.50;;
13441;SDS011;6793;55.662;13.114;2024-02-23T04:03:56;0.50;;;0.50;;
13441;SDS011;6793;55.662;13.114;2024-02-23T04:06:23;0.50;;;0.50;;
13441;SDS011;6793;55.662;13.114;2024-02-23T04:08:50;0.50;;;0.50;;
13441;SDS011;6793;55.662;13.114;2024-02-23T04:11:17;0.50;;;0.50;;
13441;SDS011;6793;55.662;13.114;2024-02-23T04:13:44;0.60;;;0.60;;
13441;SDS011;6793;55.662;13.114;2024-02-23T04:16:11;0.50;;;0.50;;
13441;SDS011;6793;55.662;13.114;2024-02-23T04:18:40;0.50;;;0.50;;
13441;SDS011;6793;55.662;13.114;2024-02-23T04:21:07;0.50;;;0.50;;
13441;SDS011;6793;55.662;13.114;2024-02-23T04:23:34;0.50;;;0.50;;
13441;SDS011;6793;55.662;13.114;2024-02-23T04:26:02;0.50;;;0.50;;
13441;SDS011;6793;55.662;13.114;2024-02-23T04:28:29;0.55;;;0.55;;
13441;SDS011;6793;55.662;13.114;2024-02-23T04:30:58;0.50;;;0.50;;
13441;SDS011;6793;55.662;13.114;2024-02-23T04:33:26;0.57;;;0.57;;
13441;SDS011;6793;55.662;13.114;2024-02-23T04:35:54;0.60;;;0.60;;
13441;SDS011;6793;55.662;13.114;2024-02-23T04:38:21;0.50;;;0.50;;
13441;SDS011;6793;55.662;13.114;2024-02-23T04:40:48;0.50;;;0.50;;
13441;SDS011;6793;55.662;13.114;2024-02-23T04:43:15;0.50;;;0.50;;
13441;SDS011;6793;55.662;13.114;2024-02-23T04:45:42;0.50;;;0.50;;
13441;SDS011;6793;55.662;13.114;2024-02-23T04:48:09;0.50;;;0.50;;
13441;SDS011;6793;55.662;13.114;2024-02-23T04:50:36;0.50;;;0.50;;
13441;SDS011;6793;55.662;13.114;2024-02-23T04:53:05;0.50;;;0.50;;
13441;SDS011;6793;55.662;13.114;2024-02-23T04:55:33;0.50;;;0.50;;
13441;SDS011;6793;55.662;13.114;2024-02-23T04:58:00;0.50;;;0.50;;
13441;SDS011;6793;55.662;13.114;2024-02-23T05:00:27;0.50;;;0.50;;
13441;SDS011;6793;55.662;13.114;2024-02-23T05:02:58;0.43;;;0.43;;
13441;SDS011;6793;55.662;13.114;2024-02-23T05:05:28;0.60;;;0.60;;
13441;SDS011;6793;55.662;13.114;2024-02-23T05:07:55;0.50;;;0.50;;
13441;SDS011;6793;55.662;13.114;2024-02-23T05:10:23;0.50;;;0.50;;
13441;SDS011;6793;55.662;13.114;2024-02-23T05:12:50;0.50;;;0.50;;
13441;SDS011;6793;55.662;13.114;2024-02-23T05:15:17;0.40;;;0.40;;
13441;SDS011;6793;55.662;13.114;2024-02-23T05:17:44;0.50;;;0.50;;
13441;SDS011;6793;55.662;13.114;2024-02-23T05:20:12;0.60;;;0.60;;
13441;SDS011;6793;55.662;13.114;2024-02-23T05:22:39;0.50;;;0.50;;
13441;SDS011;6793;55.662;13.114;2024-02-23T05:25:06;0.52;;;0.52;;
13441;SDS011;6793;55.662;13.114;2024-02-23T05:27:35;0.60;;;0.60;;
13441;SDS011;6793;55.662;13.114;2024-02-23T05:30:02;0.60;;;0.60;;
13441;SDS011;6793;55.662;13.114;2024-02-23T05:32:29;0.60;;;0.60;;
13441;SDS011;6793;55.662;13.114;2024-02-23T05:34:56;0.70;;;0.70;;
13441;SDS011;6793;55.662;13.114;2024-02-23T05:37:24;0.57;;;0.57;;
13441;SDS011;6793;55.662;13.114;2024-02-23T05:39:52;0.60;;;0.60;;
13441;SDS011;6793;55.662;13.114;2024-02-23T05:42:19;0.60;;;0.60;;
13441;SDS011;6793;55.662;13.114;2024-02-23T05:44:48;0.60;;;0.60;;
13441;SDS011;6793;55.662;13.114;2024-02-23T05:47:15;0.60;;;0.60;;
13441;SDS011;6793;55.662;13.114;2024-02-23T05:49:42;0.60;;;0.60;;
13441;SDS011;6793;55.662;13.114;2024-02-23T05:52:09;0.60;;;0.60;;
13441;SDS011;6793;55.662;13.114;2024-02-23T05:54:37;0.70;;;0.70;;
13441;SDS011;6793;55.662;13.114;2024-02-23T05:57:04;0.50;;;0.50;;
13441;SDS011;6793;55.662;13.114;2024-02-23T05:59:31;0.70;;;0.70;;
13441;SDS011;6793;55.662;13.114;2024-02-23T06:01:59;0.55;;;0.55;;
13441;SDS011;6793;55.662;13.114;2024-02-23T06:04:26;0.70;;;0.70;;
13441;SDS011;6793;55.662;13.114;2024-02-23T06:06:53;0.70;;;0.70;;
13441;SDS011;6793;55.662;13.114;2024-02-23T06:09:20;0.60;;;0.60;;
13441;SDS011;6793;55.662;13.114;2024-02-23T06:11:48;0.60;;;0.60;;
13441;SDS011;6793;55.662;13.114;2024-02-23T06:14:15;0.60;;;0.60;;
13441;SDS011;6793;55.662;13.114;2024-02-23T06:16:42;0.70;;;0.70;;
13441;SDS011;6793;55.662;13.114;2024-02-23T06:19:10;0.70;;;0.70;;
13441;SDS011;6793;55.662;13.114;2024-02-23T06:21:37;0.70;;;0.70;;
13441;SDS011;6793;55.662;13.114;2024-02-23T06:24:04;0.60;;;0.60;;
13441;SDS011;6793;55.662;13.114;2024-02-23T06:26:33;0.60;;;0.60;;
13441;SDS011;6793;55.662;13.114;2024-02-23T06:29:00;0.63;;;0.63;;
13441;SDS011;6793;55.662;13.114;2024-02-23T06:31:28;0.70;;;0.70;;
13441;SDS011;6793;55.662;13.114;2024-02-23T06:33:55;0.60;;;0.60;;
13441;SDS011;6793;55.662;13.114;2024-02-23T06:36:24;0.70;;;0.70;;
13441;SDS011;6793;55.662;13.114;2024-02-23T06:38:51;0.60;;;0.60;;
13441;SDS011;6793;55.662;13.114;2024-02-23T06:41:18;0.60;;;0.60;;
13441;SDS011;6793;55.662;13.114;2024-02-23T06:43:45;0.60;;;0.60;;
13441;SDS011;6793;55.662;13.114;2024-02-23T06:46:12;0.60;;;0.60;;
13441;SDS011;6793;55.662;13.114;2024-02-23T06:48:39;0.60;;;0.60;;
13441;SDS011;6793;55.662;13.114;2024-02-23T06:51:06;0.63;;;0.63;;
13441;SDS011;6793;55.662;13.114;2024-02-23T06:53:35;0.60;;;0.60;;
13441;SDS011;6793;55.662;13.114;2024-02-23T06:56:03;0.60;;;0.60;;
13441;SDS011;6793;55.662;13.114;2024-02-23T06:58:30;0.50;;;0.50;;
13441;SDS011;6793;55.662;13.114;2024-02-23T07:00:57;0.50;;;0.50;;
13441;SDS011;6793;55.662;13.114;2024-02-23T07:03:25;0.60;;;0.60;;
13441;SDS011;6793;55.662;13.114;2024-02-23T07:05:52;0.52;;;0.52;;
13441;SDS011;6793;55.662;13.114;2024-02-23T07:08:19;0.50;;;0.50;;
13441;SDS011;6793;55.662;13.114;2024-02-23T07:10:47;0.50;;;0.50;;
13441;SDS011;6793;55.662;13.114;2024-02-23T07:13:14;0.47;;;0.47;;
13441;SDS011;6793;55.662;13.114;2024-02-23T07:15:43;0.50;;;0.50;;
13441;SDS011;6793;55.662;13.114;2024-02-23T07:18:10;0.50;;;0.50;;
13441;SDS011;6793;55.662;13.114;2024-02-23T07:20:37;0.60;;;0.60;;
13441;SDS011;6793;55.662;13.114;2024-02-23T07:23:04;0.60;;;0.60;;
13441;SDS011;6793;55.662;13.114;2024-02-23T07:25:31;0.60;;;0.60;;
13441;SDS011;6793;55.662;13.114;2024-02-23T07:28:00;0.60;;;0.60;;
13441;SDS011;6793;55.662;13.114;2024-02-23T07:30:27;0.60;;;0.60;;
13441;SDS011;6793;55.662;13.114;2024-02-23T07:32:54;0.50;;;0.50;;
13441;SDS011;6793;55.662;13.114;2024-02-23T07:35:21;0.60;;;0.60;;
13441;SDS011;6793;55.662;13.114;2024-02-23T07:37:48;0.60;;;0.60;;
13441;SDS011;6793;55.662;13.114;2024-02-23T07:40:15;0.60;;;0.60;;
13441;SDS011;6793;55.662;13.114;2024-02-23T07:42:42;0.60;;;0.60;;
13441;SDS011;6793;55.662;13.114;2024-02-23T07:45:11;0.60;;;0.60;;
13441;SDS011;6793;55.662;13.114;2024-02-23T07:47:38;0.60;;;0.60;;
13441;SDS011;6793;55.662;13.114;2024-02-23T07:50:05;0.60;;;0.60;;
13441;SDS011;6793;55.662;13.114;2024-02-23T07:52:33;0.60;;;0.60;;
13441;SDS011;6793;55.662;13.114;2024-02-23T07:55:00;0.60;;;0.60;;
13441;SDS011;6793;55.662;13.114;2024-02-23T07:57:30;0.60;;;0.60;;
13441;SDS011;6793;55.662;13.114;2024-02-23T07:59:58;0.50;;;0.50;;
13441;SDS011;6793;55.662;13.114;2024-02-23T08:02:26;0.47;;;0.47;;
13441;SDS011;6793;55.662;13.114;2024-02-23T08:04:53;0.57;;;0.57;;
13441;SDS011;6793;55.662;13.114;2024-02-23T08:07:20;0.50;;;0.50;;
13441;SDS011;6793;55.662;13.114;2024-02-23T08:09:48;0.57;;;0.57;;
13441;SDS011;6793;55.662;13.114;2024-02-23T08:12:15;0.50;;;0.50;;
13441;SDS011;6793;55.662;13.114;2024-02-23T08:14:42;0.50;;;0.50;;
13441;SDS011;6793;55.662;13.114;2024-02-23T08:17:10;0.40;;;0.40;;
13441;SDS011;6793;55.662;13.114;2024-02-23T08:19:39;0.50;;;0.50;;
13441;SDS011;6793;55.662;13.114;2024-02-23T08:22:06;0.40;;;0.40;;
13441;SDS011;6793;55.662;13.114;2024-02-23T08:24:33;0.40;;;0.40;;
13441;SDS011;6793;55.662;13.114;2024-02-23T08:27:00;0.40;;;0.40;;
13441;SDS011;6793;55.662;13.114;2024-02-23T08:29:27;0.40;;;0.40;;
13441;SDS011;6793;55.662;13.114;2024-02-23T08:31:54;0.40;;;0.40;;
13441;SDS011;6793;55.662;13.114;2024-02-23T08:34:21;0.50;;;0.50;;
13441;SDS011;6793;55.662;13.114;2024-02-23T08:36:51;0.50;;;0.50;;
13441;SDS011;6793;55.662;13.114;2024-02-23T08:39:18;0.40;;;0.40;;
13441;SDS011;6793;55.662;13.114;2024-02-23T08:41:47;0.50;;;0.50;;
13441;SDS011;6793;55.662;13.114;2024-02-23T08:44:16;0.50;;;0.50;;
13441;SDS011;6793;55.662;13.114;2024-02-23T08:46:43;0.50;;;0.50;;
13441;SDS011;6793;55.662;13.114;2024-02-23T08:49:10;0.52;;;0.52;;
13441;SDS011;6793;55.662;13.114;2024-02-23T08:51:37;0.45;;;0.45;;
13441;SDS011;6793;55.662;13.114;2024-02-23T08:54:06;0.50;;;0.50;;
13441;SDS011;6793;55.662;13.114;2024-02-23T08:56:36;0.60;;;0.60;;
13441;SDS011;6793;55.662;13.114;2024-02-23T08:59:04;0.50;;;0.50;;
13441;SDS011;6793;55.662;13.114;2024-02-23T09:01:31;0.50;;;0.50;;
13441;SDS011;6793;55.662;13.114;2024-02-23T09:03:58;0.50;;;0.50;;
13441;SDS011;6793;55.662;13.114;2024-02-23T09:06:25;0.50;;;0.50;;
13441;SDS011;6793;55.662;13.114;2024-02-23T09:08:52;0.50;;;0.50;;
13441;SDS011;6793;55.662;13.114;2024-02-23T09:11:20;0.50;;;0.50;;
13441;SDS011;6793;55.662;13.114;2024-02-23T09:13:47;0.50;;;0.50;;
13441;SDS011;6793;55.662;13.114;2024-02-23T09:16:14;0.50;;;0.50;;
13441;SDS011;6793;55.662;13.114;2024-02-23T09:18:42;0.50;;;0.50;;
13441;SDS011;6793;55.662;13.114;2024-02-23T09:21:09;0.60;;;0.60;;
13441;SDS011;6793;55.662;13.114;2024-02-23T09:23:36;0.60;;;0.60;;
13441;SDS011;6793;55.662;13.114;2024-02-23T09:26:08;0.63;;;0.63;;
13441;SDS011;6793;55.662;13.114;2024-02-23T09:28:38;0.50;;;0.50;;
13441;SDS011;6793;55.662;13.114;2024-02-23T09:31:06;0.60;;;0.60;;
13441;SDS011;6793;55.662;13.114;2024-02-23T09:33:33;0.60;;;0.60;;
13441;SDS011;6793;55.662;13.114;2024-02-23T09:36:00;0.57;;;0.57;;
13441;SDS011;6793;55.662;13.114;2024-02-23T09:38:27;0.60;;;0.60;;
13441;SDS011;6793;55.662;13.114;2024-02-23T09:40:57;0.52;;;0.52;;
13441;SDS011;6793;55.662;13.114;2024-02-23T09:43:24;0.50;;;0.50;;
13441;SDS011;6793;55.662;13.114;2024-02-23T09:45:55;0.50;;;0.50;;
13441;SDS011;6793;55.662;13.114;2024-02-23T09:48:23;0.60;;;0.60;;
13441;SDS011;6793;55.662;13.114;2024-02-23T09:50:50;0.55;;;0.55;;
13441;SDS011;6793;55.662;13.114;2024-02-23T09:53:19;0.60;;;0.60;;
13441;SDS011;6793;55.662;13.114;2024-02-23T09:55:47;0.60;;;0.60;;
13441;SDS011;6793;55.662;13.114;2024-02-23T09:58:16;0.57;;;0.57;;
13441;SDS011;6793;55.662;13.114;2024-02-23T10:00:43;0.50;;;0.50;;
13441;SDS011;6793;55.662;13.114;2024-02-23T10:03:11;0.60;;;0.60;;
13441;SDS011;6793;55.662;13.114;2024-02-23T10:05:38;0.60;;;0.60;;
13441;SDS011;6793;55.662;13.114;2024-02-23T10:08:06;0.52;;;0.52;;
13441;SDS011;6793;55.662;13.114;2024-02-23T10:10:33;0.60;;;0.60;;
13441;SDS011;6793;55.662;13.114;2024-02-23T10:13:01;0.50;;;0.50;;
13441;SDS011;6793;55.662;13.114;2024-02-23T10:15:29;0.55;;;0.55;;
13441;SDS011;6793;55.662;13.114;2024-02-23T10:17:56;0.60;;;0.60;;
13441;SDS011;6793;55.662;13.114;2024-02-23T10:20:25;0.50;;;0.50;;
13441;SDS011;6793;55.662;13.114;2024-02-23T10:22:52;0.60;;;0.60;;
13441;SDS011;6793;55.662;13.114;2024-02-23T10:25:19;0.65;;;0.65;;
13441;SDS011;6793;55.662;13.114;2024-02-23T10:27:46;0.70;;;0.70;;
13441;SDS011;6793;55.662;13.114;2024-02-23T10:30:13;0.60;;;0.60;;
13441;SDS011;6793;55.662;13.114;2024-02-23T10:32:41;0.70;;;0.70;;
13441;SDS011;6793;55.662;13.114;2024-02-23T10:35:09;0.60;;;0.60;;
13441;SDS011;6793;55.662;13.114;2024-02-23T10:37:38;0.60;;;0.60;;
13441;SDS011;6793;55.662;13.114;2024-02-23T10:40:05;0.57;;;0.57;;
13441;SDS011;6793;55.662;13.114;2024-02-23T10:42:34;0.60;;;0.60;;
13441;SDS011;6793;55.662;13.114;2024-02-23T10:45:02;0.60;;;0.60;;
13441;SDS011;6793;55.662;13.114;2024-02-23T10:47:29;0.60;;;0.60;;
13441;SDS011;6793;55.662;13.114;2024-02-23T10:49:57;0.50;;;0.50;;
13441;SDS011;6793;55.662;13.114;2024-02-23T10:52:25;0.50;;;0.50;;
13441;SDS011;6793;55.662;13.114;2024-02-23T10:54:54;0.60;;;0.60;;
13441;SDS011;6793;55.662;13.114;2024-02-23T10:57:22;0.50;;;0.50;;
13441;SDS011;6793;55.662;13.114;2024-02-23T10:59:49;0.50;;;0.50;;
13441;SDS011;6793;55.662;13.114;2024-02-23T11:02:17;0.60;;;0.60;;
13441;SDS011;6793;55.662;13.114;2024-02-23T11:04:45;0.50;;;0.50;;
13441;SDS011;6793;55.662;13.114;2024-02-23T11:07:15;0.50;;;0.50;;
13441;SDS011;6793;55.662;13.114;2024-02-23T11:09:42;0.50;;;0.50;;
13441;SDS011;6793;55.662;13.114;2024-02-23T11:12:11;0.40;;;0.40;;
13441;SDS011;6793;55.662;13.114;2024-02-23T11:14:49;0.50;;;0.50;;
13441;SDS011;6793;55.662;13.114;2024-02-23T11:17:17;0.60;;;0.60;;
13441;SDS011;6793;55.662;13.114;2024-02-23T11:19:45;0.60;;;0.60;;
13441;SDS011;6793;55.662;13.114;2024-02-23T11:22:12;0.60;;;0.60;;
13441;SDS011;6793;55.662;13.114;2024-02-23T11:24:42;0.60;;;0.60;;
13441;SDS011;6793;55.662;13.114;2024-02-23T11:27:12;0.60;;;0.60;;
13441;SDS011;6793;55.662;13.114;2024-02-23T11:29:43;0.50;;;0.50;;
13441;SDS011;6793;55.662;13.114;2024-02-23T11:32:12;0.50;;;0.50;;
13441;SDS011;6793;55.662;13.114;2024-02-23T11:34:39;0.50;;;0.50;;
13441;SDS011;6793;55.662;13.114;2024-02-23T11:37:07;0.43;;;0.43;;
13441;SDS011;6793;55.662;13.114;2024-02-23T11:39:34;0.50;;;0.50;;
13441;SDS011;6793;55.662;13.114;2024-02-23T11:42:02;0.50;;;0.50;;
13441;SDS011;6793;55.662;13.114;2024-02-23T11:44:30;0.60;;;0.60;;
13441;SDS011;6793;55.662;13.114;2024-02-23T11:46:59;0.50;;;0.50;;
13441;SDS011;6793;55.662;13.114;2024-02-23T11:49:29;0.60;;;0.60;;
13441;SDS011;6793;55.662;13.114;2024-02-23T11:51:56;0.50;;;0.50;;
13441;SDS011;6793;55.662;13.114;2024-02-23T11:54:23;0.45;;;0.45;;
13441;SDS011;6793;55.662;13.114;2024-02-23T11:56:51;0.60;;;0.60;;
13441;SDS011;6793;55.662;13.114;2024-02-23T11:59:18;0.60;;;0.60;;
13441;SDS011;6793;55.662;13.114;2024-02-23T12:01:45;0.60;;;0.60;;
13441;SDS011;6793;55.662;13.114;2024-02-23T12:04:15;0.60;;;0.60;;
13441;SDS011;6793;55.662;13.114;2024-02-23T12:06:42;0.43;;;0.43;;
13441;SDS011;6793;55.662;13.114;2024-02-23T12:09:10;0.50;;;0.50;;
13441;SDS011;6793;55.662;13.114;2024-02-23T12:11:38;0.50;;;0.50;;
13441;SDS011;6793;55.662;13.114;2024-02-23T12:14:05;0.50;;;0.50;;
13441;SDS011;6793;55.662;13.114;2024-02-23T12:16:33;0.57;;;0.57;;
13441;SDS011;6793;55.662;13.114;2024-02-23T12:19:01;0.50;;;0.50;;
13441;SDS011;6793;55.662;13.114;2024-02-23T12:21:30;0.50;;;0.50;;
13441;SDS011;6793;55.662;13.114;2024-02-23T12:23:57;0.60;;;0.60;;
13441;SDS011;6793;55.662;13.114;2024-02-23T12:26:24;0.50;;;0.50;;
13441;SDS011;6793;55.662;13.114;2024-02-23T12:28:51;0.50;;;0.50;;
13441;SDS011;6793;55.662;13.114;2024-02-23T12:31:23;0.60;;;0.60;;
13441;SDS011;6793;55.662;13.114;2024-02-23T12:33:51;0.50;;;0.50;;
13441;SDS011;6793;55.662;13.114;2024-02-23T12:36:18;0.60;;;0.60;;
13441;SDS011;6793;55.662;13.114;2024-02-23T12:38:46;0.60;;;0.60;;
13441;SDS011;6793;55.662;13.114;2024-02-23T12:41:13;0.60;;;0.60;;
13441;SDS011;6793;55.662;13.114;2024-02-23T12:43:40;0.60;;;0.60;;
13441;SDS011;6793;55.662;13.114;2024-02-23T12:46:07;0.50;;;0.50;;
13441;SDS011;6793;55.662;13.114;2024-02-23T12:48:38;0.55;;;0.55;;
13441;SDS011;6793;55.662;13.114;2024-02-23T12:51:05;0.55;;;0.55;;
13441;SDS011;6793;55.662;13.114;2024-02-23T12:53:33;0.60;;;0.60;;
13441;SDS011;6793;55.662;13.114;2024-02-23T12:56:02;0.50;;;0.50;;
13441;SDS011;6793;55.662;13.114;2024-02-23T12:58:29;0.60;;;0.60;;
13441;SDS011;6793;55.662;13.114;2024-02-23T13:00:57;0.55;;;0.55;;
13441;SDS011;6793;55.662;13.114;2024-02-23T13:03:24;0.60;;;0.60;;
13441;SDS011;6793;55.662;13.114;2024-02-23T13:05:52;0.60;;;0.60;;
13441;SDS011;6793;55.662;13.114;2024-02-23T13:08:19;0.57;;;0.57;;
13441;SDS011;6793;55.662;13.114;2024-02-23T13:10:46;0.57;;;0.57;;
13441;SDS011;6793;55.662;13.114;2024-02-23T13:13:14;0.60;;;0.60;;
13441;SDS011;6793;55.662;13.114;2024-02-23T13:15:42;0.60;;;0.60;;
13441;SDS011;6793;55.662;13.114;2024-02-23T13:18:09;0.60;;;0.60;;
13441;SDS011;6793;55.662;13.114;2024-02-23T13:20:36;0.60;;;0.60;;
13441;SDS011;6793;55.662;13.114;2024-02-23T13:23:04;0.60;;;0.60;;
13441;SDS011;6793;55.662;13.114;2024-02-23T13:25:33;0.60;;;0.60;;
13441;SDS011;6793;55.662;13.114;2024-02-23T13:28:00;0.60;;;0.60;;
13441;SDS011;6793;55.662;13.114;2024-02-23T13:30:28;0.50;;;0.50;;
13441;SDS011;6793;55.662;13.114;2024-02-23T13:32:55;0.60;;;0.60;;
13441;SDS011;6793;55.662;13.114;2024-02-23T13:35:22;0.57;;;0.57;;
13441;SDS011;6793;55.662;13.114;2024-02-23T13:37:50;0.60;;;0.60;;
13441;SDS011;6793;55.662;13.114;2024-02-23T13:40:17;0.52;;;0.52;;
13441;SDS011;6793;55.662;13.114;2024-02-23T13:42:44;0.60;;;0.60;;
13441;SDS011;6793;55.662;13.114;2024-02-23T13:45:14;0.60;;;0.60;;
13441;SDS011;6793;55.662;13.114;2024-02-23T13:47:43;0.52;;;0.52;;
13441;SDS011;6793;55.662;13.114;2024-02-23T13:50:11;0.68;;;0.68;;
13441;SDS011;6793;55.662;13.114;2024-02-23T13:52:39;0.60;;;0.60;;
13441;SDS011;6793;55.662;13.114;2024-02-23T13:55:06;0.60;;;0.60;;
13441;SDS011;6793;55.662;13.114;2024-02-23T13:57:34;0.57;;;0.57;;
13441;SDS011;6793;55.662;13.114;2024-02-23T14:00:01;0.50;;;0.50;;
13441;SDS011;6793;55.662;13.114;2024-02-23T14:02:28;0.60;;;0.60;;
13441;SDS011;6793;55.662;13.114;2024-02-23T14:05:00;0.52;;;0.52;;
13441;SDS011;6793;55.662;13.114;2024-02-23T14:07:28;0.60;;;0.60;;
13441;SDS011;6793;55.662;13.114;2024-02-23T14:09:55;0.50;;;0.50;;
13441;SDS011;6793;55.662;13.114;2024-02-23T14:12:22;0.50;;;0.50;;
13441;SDS011;6793;55.662;13.114;2024-02-23T14:14:49;0.50;;;0.50;;
13441;SDS011;6793;55.662;13.114;2024-02-23T14:17:17;0.60;;;0.60;;
13441;SDS011;6793;55.662;13.114;2024-02-23T14:19:44;0.60;;;0.60;;
13441;SDS011;6793;55.662;13.114;2024-02-23T14:22:12;0.50;;;0.50;;
13441;SDS011;6793;55.662;13.114;2024-02-23T14:24:39;0.60;;;0.60;;
13441;SDS011;6793;55.662;13.114;2024-02-23T14:27:06;0.50;;;0.50;;
13441;SDS011;6793;55.662;13.114;2024-02-23T14:29:33;0.57;;;0.57;;
13441;SDS011;6793;55.662;13.114;2024-02-23T14:32:01;0.60;;;0.60;;
13441;SDS011;6793;55.662;13.114;2024-02-23T14:34:28;0.50;;;0.50;;
13441;SDS011;6793;55.662;13.114;2024-02-23T14:36:55;0.50;;;0.50;;
13441;SDS011;6793;55.662;13.114;2024-02-23T14:39:24;0.60;;;0.60;;
13441;SDS011;6793;55.662;13.114;2024-02-23T14:41:51;0.60;;;0.60;;
13441;SDS011;6793;55.662;13.114;2024-02-23T14:44:18;0.60;;;0.60;;
13441;SDS011;6793;55.662;13.114;2024-02-23T14:46:45;0.60;;;0.60;;
13441;SDS011;6793;55.662;13.114;2024-02-23T14:49:12;0.68;;;0.68;;